createdAt,value
2018-06-17T00:00:04.108Z,2.43
2018-06-17T00:02:33.671Z,2.20
2018-06-17T00:05:02.563Z,2.17
2018-06-17T00:07:31.428Z,1.90
2018-06-17T00:10:00.267Z,2.03
2018-06-17T00:12:29.164Z,2.70
2018-06-17T00:14:58.023Z,1.97
2018-06-17T00:17:26.870Z,2.07
2018-06-17T00:19:55.750Z,2.20
2018-06-17T00:22:24.733Z,1.87
2018-06-17T00:24:53.679Z,2.13
2018-06-17T00:27:22.524Z,1.73
2018-06-17T00:29:51.405Z,1.90
2018-06-17T00:32:20.288Z,1.90
2018-06-17T00:34:49.197Z,1.80
2018-06-17T00:37:18.084Z,1.70
2018-06-17T00:39:46.951Z,1.60
2018-06-17T00:42:15.815Z,2.60
2018-06-17T00:44:44.475Z,1.43
2018-06-17T00:47:13.303Z,1.73
2018-06-17T00:49:42.109Z,1.73
2018-06-17T00:52:11.012Z,1.90
2018-06-17T00:54:40.065Z,1.67
2018-06-17T00:57:20.349Z,2.30
2018-06-17T00:59:49.205Z,1.80
2018-06-17T01:02:18.140Z,1.83
2018-06-17T01:04:47.040Z,1.50
2018-06-17T01:07:15.974Z,1.80
2018-06-17T01:09:44.851Z,1.80
2018-06-17T01:12:13.750Z,1.75
2018-06-17T01:14:42.703Z,1.87
2018-06-17T01:17:11.562Z,1.73
2018-06-17T01:19:40.542Z,2.00
2018-06-17T01:22:09.460Z,1.57
2018-06-17T01:24:38.357Z,2.00
2018-06-17T01:27:07.293Z,1.80
2018-06-17T01:29:36.241Z,1.70
2018-06-17T01:32:05.678Z,1.60
2018-06-17T01:34:34.859Z,1.70
2018-06-17T01:37:03.801Z,1.50
2018-06-17T01:39:32.679Z,1.67
2018-06-17T01:42:01.351Z,1.77
2018-06-17T01:44:30.156Z,1.80
2018-06-17T01:46:59.148Z,1.83
2018-06-17T01:49:28.053Z,1.60
2018-06-17T01:51:57.000Z,1.70
2018-06-17T01:54:25.933Z,1.43
2018-06-17T01:56:54.886Z,1.53
2018-06-17T01:59:23.765Z,1.77
2018-06-17T02:01:52.772Z,1.53
2018-06-17T02:04:27.123Z,1.27
2018-06-17T02:07:01.287Z,1.63
2018-06-17T02:09:35.541Z,1.50
2018-06-17T02:12:10.559Z,1.70
2018-06-17T02:14:44.844Z,1.60
2018-06-17T02:17:13.745Z,1.67
2018-06-17T02:19:42.685Z,1.50
2018-06-17T02:22:11.775Z,1.27
2018-06-17T02:24:40.668Z,2.20
2018-06-17T02:27:09.803Z,1.45
2018-06-17T02:29:39.045Z,1.70
2018-06-17T02:32:08.060Z,1.97
2018-06-17T02:34:37.405Z,1.90
2018-06-17T02:37:06.991Z,1.73
2018-06-17T02:39:35.944Z,1.80
2018-06-17T02:42:05.051Z,1.90
2018-06-17T02:44:33.920Z,2.40
2018-06-17T02:47:08.198Z,1.90
2018-06-17T02:49:39.475Z,2.40
2018-06-17T02:52:13.999Z,1.80
2018-06-17T02:54:44.202Z,2.23
2018-06-17T02:57:14.327Z,2.80
2018-06-17T02:59:44.440Z,1.90
2018-06-17T03:02:13.820Z,1.80
2018-06-17T03:04:42.721Z,1.90
2018-06-17T03:07:11.669Z,1.80
2018-06-17T03:09:40.578Z,1.90
2018-06-17T03:12:09.481Z,2.30
2018-06-17T03:14:38.413Z,1.80
2018-06-17T03:17:07.277Z,1.70
2018-06-17T03:19:36.225Z,2.30
2018-06-17T03:22:05.712Z,1.83
2018-06-17T03:24:40.087Z,1.87
2018-06-17T03:27:14.270Z,2.33
2018-06-17T03:29:48.676Z,1.80
2018-06-17T03:32:23.091Z,1.85
2018-06-17T03:34:57.618Z,2.40
2018-06-17T03:37:26.521Z,2.40
2018-06-17T03:39:55.473Z,2.10
2018-06-17T03:42:24.204Z,1.90
2018-06-17T03:44:53.051Z,1.53
2018-06-17T03:47:21.950Z,1.97
2018-06-17T03:49:51.017Z,1.87
2018-06-17T03:52:19.967Z,2.00
2018-06-17T03:54:48.838Z,1.77
2018-06-17T03:57:17.723Z,2.37
2018-06-17T03:59:46.607Z,2.00
2018-06-17T04:02:16.047Z,2.00
2018-06-17T04:04:50.406Z,1.60
2018-06-17T04:07:19.290Z,2.10
2018-06-17T04:09:48.318Z,1.73
2018-06-17T04:12:17.211Z,1.73
2018-06-17T04:14:46.141Z,2.13
2018-06-17T04:17:15.681Z,1.53
2018-06-17T04:19:45.991Z,2.00
2018-06-17T04:22:15.233Z,1.80
2018-06-17T04:24:44.216Z,2.57
2018-06-17T04:27:13.127Z,1.85
2018-06-17T04:29:42.234Z,1.60
2018-06-17T04:32:11.125Z,2.13
2018-06-17T04:34:40.032Z,1.80
2018-06-17T04:37:09.008Z,1.97
2018-06-17T04:39:37.900Z,1.30
2018-06-17T04:42:06.843Z,1.87
2018-06-17T04:44:35.793Z,1.90
2018-06-17T04:47:05.021Z,1.80
2018-06-17T04:49:33.906Z,2.23
2018-06-17T04:52:02.882Z,1.90
2018-06-17T04:54:32.523Z,2.10
2018-06-17T04:57:01.449Z,1.70
2018-06-17T04:59:31.069Z,2.10
2018-06-17T05:02:00.758Z,1.97
2018-06-17T05:04:29.662Z,1.80
2018-06-17T05:06:58.629Z,1.80
2018-06-17T05:09:28.492Z,2.53
2018-06-17T05:11:57.382Z,1.97
2018-06-17T05:14:26.388Z,1.77
2018-06-17T05:16:55.306Z,2.13
2018-06-17T05:19:24.198Z,2.00
2018-06-17T05:21:53.105Z,1.77
2018-06-17T05:24:22.071Z,1.97
2018-06-17T05:26:50.976Z,1.80
2018-06-17T05:29:20.468Z,2.73
2018-06-17T05:31:49.433Z,2.07
2018-06-17T05:34:18.776Z,2.08
2018-06-17T05:36:49.832Z,1.90
2018-06-17T05:39:19.979Z,1.98
2018-06-17T05:41:50.108Z,2.43
2018-06-17T05:44:20.376Z,2.35
2018-06-17T05:46:49.257Z,2.20
2018-06-17T05:49:20.214Z,1.77
2018-06-17T05:51:50.141Z,2.70
2018-06-17T05:54:19.001Z,2.23
2018-06-17T05:56:47.886Z,2.00
2018-06-17T05:59:17.715Z,2.40
2018-06-17T06:01:47.409Z,1.80
2018-06-17T06:04:17.133Z,2.40
2018-06-17T06:06:46.337Z,2.10
2018-06-17T06:09:15.749Z,2.17
2018-06-17T06:14:33.663Z,2.43
2018-06-17T06:17:10.193Z,2.30
2018-06-17T06:19:43.156Z,2.27
2018-06-17T06:22:30.366Z,2.46
2018-06-17T06:25:06.641Z,2.70
2018-06-17T06:27:36.296Z,2.00
2018-06-17T06:30:05.416Z,2.10
2018-06-17T06:32:34.439Z,2.63
2018-06-17T06:35:03.335Z,2.87
2018-06-17T06:37:34.218Z,2.70
2018-06-17T06:40:03.520Z,2.93
2018-06-17T06:42:33.211Z,2.30
2018-06-17T06:45:02.193Z,2.53
2018-06-17T06:47:31.988Z,2.90
2018-06-17T06:50:00.987Z,2.73
2018-06-17T06:52:31.460Z,2.80
2018-06-17T06:55:01.509Z,2.90
2018-06-17T06:57:31.465Z,2.90
2018-06-17T07:00:02.551Z,2.70
2018-06-17T07:02:42.925Z,3.20
2018-06-17T07:05:23.214Z,2.93
2018-06-17T07:08:03.524Z,3.07
2018-06-17T07:10:32.369Z,2.83
2018-06-17T07:13:01.321Z,2.50
2018-06-17T07:15:41.508Z,2.40
2018-06-17T07:18:21.927Z,3.23
2018-06-17T07:20:51.183Z,3.03
2018-06-17T07:23:21.246Z,3.20
2018-06-17T07:26:34.536Z,2.70
2018-06-17T07:29:14.762Z,2.90
2018-06-17T07:31:47.409Z,2.73
2018-06-17T07:34:16.736Z,3.33
2018-06-17T07:36:45.680Z,3.07
2018-06-17T07:40:29.595Z,2.80
2018-06-17T07:42:58.714Z,3.10
2018-06-17T07:45:28.768Z,2.83
2018-06-17T07:47:57.757Z,3.33
2018-06-17T07:50:38.129Z,2.77
2018-06-17T07:53:19.884Z,3.00
2018-06-17T07:55:50.359Z,2.90
2018-06-17T07:58:19.341Z,3.13
2018-06-17T08:00:48.232Z,3.13
2018-06-17T08:03:18.285Z,2.87
2018-06-17T08:05:47.175Z,2.47
2018-06-17T08:08:16.064Z,2.77
2018-06-17T08:10:45.969Z,2.90
2018-06-17T08:13:15.359Z,2.40
2018-06-17T08:15:46.366Z,2.60
2018-06-17T08:18:15.255Z,2.87
2018-06-17T08:20:44.115Z,2.63
2018-06-17T08:23:13.267Z,3.93
2018-06-17T08:25:42.084Z,2.87
2018-06-17T08:28:10.968Z,3.10
2018-06-17T08:30:39.829Z,2.83
2018-06-17T08:33:08.726Z,3.00
2018-06-17T08:35:37.565Z,2.97
2018-06-17T08:38:06.622Z,3.23
2018-06-17T08:40:35.560Z,3.57
2018-06-17T08:43:06.174Z,2.86
2018-06-17T08:45:35.326Z,2.57
2018-06-17T08:48:04.796Z,3.33
2018-06-17T08:50:33.909Z,3.50
2018-06-17T08:53:02.815Z,3.30
2018-06-17T08:55:31.703Z,2.97
2018-06-17T08:58:00.533Z,3.27
2018-06-17T09:00:29.403Z,3.63
2018-06-17T09:02:58.244Z,3.07
2018-06-17T09:05:27.108Z,2.83
2018-06-17T09:07:56.896Z,3.10
2018-06-17T09:10:25.740Z,3.13
2018-06-17T09:12:54.603Z,3.30
2018-06-17T09:15:23.509Z,2.70
2018-06-17T09:17:52.356Z,3.17
2018-06-17T09:20:21.381Z,2.43
2018-06-17T09:22:50.247Z,3.70
2018-06-17T09:25:19.213Z,3.40
2018-06-17T09:27:48.067Z,3.13
2018-06-17T09:30:16.999Z,2.95
2018-06-17T09:32:46.157Z,2.50
2018-06-17T09:35:15.058Z,2.80
2018-06-17T09:37:43.883Z,2.83
2018-06-17T09:40:12.811Z,2.83
2018-06-17T09:42:41.676Z,2.70
2018-06-17T09:45:10.610Z,2.55
2018-06-17T09:47:39.513Z,2.73
2018-06-17T09:50:08.545Z,2.20
2018-06-17T09:52:37.425Z,2.53
2018-06-17T09:55:06.560Z,2.47
2018-06-17T09:57:35.457Z,2.97
2018-06-17T10:00:04.662Z,2.63
2018-06-17T10:02:33.458Z,2.70
2018-06-17T10:05:02.422Z,2.60
2018-06-17T10:07:31.387Z,2.83
2018-06-17T10:11:09.382Z,2.63
2018-06-17T10:13:42.686Z,2.30
2018-06-17T10:16:11.991Z,2.20
2018-06-17T10:18:41.808Z,2.57
2018-06-17T10:21:10.685Z,2.33
2018-06-17T10:23:39.576Z,1.90
2018-06-17T10:26:08.481Z,2.13
2018-06-17T10:28:37.567Z,2.23
2018-06-17T10:31:07.237Z,2.13
2018-06-17T10:33:38.972Z,2.00
2018-06-17T10:36:07.873Z,2.10
2018-06-17T10:38:36.724Z,1.73
2018-06-17T10:41:05.689Z,1.90
2018-06-17T10:43:34.580Z,1.97
2018-06-17T10:46:03.439Z,1.70
2018-06-17T10:48:32.328Z,2.00
2018-06-17T10:51:01.910Z,1.60
2018-06-17T10:53:30.734Z,1.60
2018-06-17T10:55:59.747Z,1.77
2018-06-17T10:58:28.501Z,2.43
2018-06-17T11:00:57.313Z,1.50
2018-06-17T11:03:26.175Z,2.03
2018-06-17T11:05:55.345Z,1.73
2018-06-17T11:08:24.196Z,1.70
2018-06-17T11:10:53.119Z,1.53
2018-06-17T11:13:21.876Z,2.03
2018-06-17T11:16:13.942Z,1.53
2018-06-17T11:18:42.831Z,2.27
2018-06-17T11:21:12.445Z,1.60
2018-06-17T11:23:41.332Z,1.30
2018-06-17T11:26:10.311Z,1.30
2018-06-17T11:28:39.272Z,1.40
2018-06-17T11:31:08.184Z,1.30
2018-06-17T11:33:37.943Z,1.43
2018-06-17T11:36:06.802Z,2.20
2018-06-17T11:38:35.763Z,1.90
2018-06-17T11:41:05.520Z,1.40
2018-06-17T11:43:34.356Z,1.33
2018-06-17T11:46:03.227Z,1.10
2018-06-17T11:48:33.037Z,2.07
2018-06-17T11:51:01.967Z,1.27
2018-06-17T11:53:30.577Z,1.27
2018-06-17T11:56:00.240Z,1.20
2018-06-17T11:58:29.215Z,1.30
2018-06-17T12:00:58.081Z,1.20
2018-06-17T12:03:26.924Z,1.60
2018-06-17T12:05:57.249Z,1.20
2018-06-17T12:08:26.153Z,1.50
2018-06-17T12:10:55.990Z,1.50
2018-06-17T12:13:24.756Z,1.57
2018-06-17T12:15:53.600Z,1.10
2018-06-17T12:18:22.487Z,1.57
2018-06-17T12:20:51.400Z,1.40
2018-06-17T12:23:20.282Z,1.17
2018-06-17T12:25:49.143Z,1.37
2018-06-17T12:28:18.027Z,1.17
2018-06-17T12:30:46.899Z,1.40
2018-06-17T12:33:15.811Z,1.07
2018-06-17T12:35:44.662Z,1.50
2018-06-17T12:38:13.621Z,1.30
2018-06-17T12:40:43.246Z,2.30
2018-06-17T12:43:12.259Z,1.47
2018-06-17T12:45:42.558Z,1.80
2018-06-17T12:48:11.449Z,1.10
2018-06-17T12:50:40.314Z,1.27
2018-06-17T12:53:09.207Z,1.35
2018-06-17T12:55:37.836Z,1.73
2018-06-17T12:58:06.563Z,1.50
2018-06-17T13:00:35.459Z,1.30
2018-06-17T13:03:05.116Z,2.02
2018-06-17T13:05:34.044Z,1.50
2018-06-17T13:08:02.953Z,1.17
2018-06-17T13:10:32.378Z,1.50
2018-06-17T13:13:01.455Z,1.40
2018-06-17T13:15:30.399Z,1.60
2018-06-17T13:17:59.329Z,1.50
2018-06-17T13:20:28.574Z,1.67
2018-06-17T13:22:57.224Z,1.90
2018-06-17T13:25:26.598Z,1.30
2018-06-17T13:27:55.515Z,1.40
2018-06-17T13:30:24.411Z,1.60
2018-06-17T13:32:53.293Z,1.57
2018-06-17T13:35:22.243Z,1.40
2018-06-17T13:37:51.505Z,1.53
2018-06-17T13:40:21.158Z,1.07
2018-06-17T13:42:50.052Z,1.77
2018-06-17T13:45:19.383Z,1.40
2018-06-17T13:47:48.276Z,0.80
2018-06-17T13:50:17.149Z,16.90
2018-06-17T13:52:45.937Z,603.30
2018-06-17T13:55:14.806Z,262.60
2018-06-17T13:57:43.756Z,259.60
2018-06-17T14:00:12.668Z,219.90
2018-06-17T14:02:41.639Z,220.70
2018-06-17T14:05:10.509Z,181.10
2018-06-17T14:07:39.429Z,190.23
2018-06-17T14:10:08.072Z,106.10
2018-06-17T14:12:36.873Z,113.80
2018-06-17T14:15:06.701Z,66.77
2018-06-17T14:17:35.636Z,80.50
2018-06-17T14:20:05.627Z,74.27
2018-06-17T14:22:34.485Z,61.60
2018-06-17T14:25:03.505Z,56.23
2018-06-17T14:27:32.429Z,50.37
2018-06-17T14:30:01.377Z,47.73
2018-06-17T14:32:30.263Z,30.40
2018-06-17T14:34:59.125Z,46.23
2018-06-17T14:37:28.032Z,40.27
2018-06-17T14:39:56.950Z,30.53
2018-06-17T14:42:31.099Z,34.67
2018-06-17T14:45:05.396Z,21.50
2018-06-17T14:47:39.725Z,26.67
2018-06-17T14:50:13.929Z,26.70
2018-06-17T14:52:48.143Z,20.50
2018-06-17T14:55:17.057Z,18.57
2018-06-17T14:57:45.927Z,16.10
2018-06-17T15:00:14.775Z,15.57
2018-06-17T15:02:43.606Z,15.20
2018-06-17T15:05:12.474Z,12.80
2018-06-17T15:07:41.991Z,13.30
2018-06-17T15:10:10.912Z,8.57
2018-06-17T15:12:40.020Z,10.17
2018-06-17T15:15:09.009Z,9.20
2018-06-17T15:17:37.963Z,8.23
2018-06-17T15:20:11.895Z,8.74
2018-06-17T15:22:41.347Z,8.40
2018-06-17T15:25:11.027Z,7.30
2018-06-17T15:27:39.933Z,6.30
2018-06-17T15:30:09.007Z,6.50
2018-06-17T15:32:43.186Z,5.77
2018-06-17T15:35:17.447Z,5.13
2018-06-17T15:37:51.780Z,5.17
2018-06-17T15:40:24.974Z,5.27
2018-06-17T15:42:53.829Z,3.50
2018-06-17T15:45:22.715Z,4.17
2018-06-17T15:47:51.552Z,4.13
2018-06-17T15:50:20.406Z,3.83
2018-06-17T15:52:49.272Z,3.60
2018-06-17T15:55:18.419Z,3.60
2018-06-17T15:57:47.297Z,2.60
2018-06-17T16:00:16.173Z,3.15
2018-06-17T16:02:45.029Z,2.80
2018-06-17T16:05:14.525Z,2.53
2018-06-17T16:07:43.683Z,2.57
2018-06-17T16:10:12.644Z,2.20
2018-06-17T16:12:46.824Z,2.17
2018-06-17T16:15:21.922Z,2.10
2018-06-17T16:17:56.198Z,2.20
2018-06-17T16:20:30.916Z,2.10
2018-06-17T16:23:00.254Z,2.17
2018-06-17T16:25:29.336Z,2.37
2018-06-17T16:27:58.465Z,1.60
2018-06-17T16:30:27.376Z,1.90
2018-06-17T16:32:56.433Z,1.53
2018-06-17T16:35:25.349Z,1.80
2018-06-17T16:37:54.192Z,1.83
2018-06-17T16:40:23.808Z,1.80
2018-06-17T16:42:52.944Z,1.73
2018-06-17T16:45:21.890Z,1.65
2018-06-17T16:47:50.737Z,1.60
2018-06-17T16:50:19.577Z,1.43
2018-06-17T16:52:54.471Z,1.40
2018-06-17T16:55:28.715Z,1.60
2018-06-17T16:58:03.083Z,1.57
2018-06-17T17:00:31.929Z,1.73
2018-06-17T17:03:00.881Z,1.60
2018-06-17T17:05:30.398Z,1.40
2018-06-17T17:07:59.285Z,1.70
2018-06-17T17:10:28.251Z,2.00
2018-06-17T17:12:58.346Z,1.73
2018-06-17T17:15:27.320Z,1.80
2018-06-17T17:17:55.923Z,1.50
2018-06-17T17:20:24.684Z,1.73
2018-06-17T17:22:54.494Z,1.33
2018-06-17T17:25:23.332Z,1.70
2018-06-17T17:27:52.161Z,1.90
2018-06-17T17:30:21.292Z,1.87
2018-06-17T17:32:55.626Z,1.50
2018-06-17T17:35:29.864Z,1.60
2018-06-17T17:38:04.184Z,1.80
2018-06-17T17:40:38.436Z,1.20
2018-06-17T17:43:07.339Z,1.50
2018-06-17T17:45:42.118Z,1.50
2018-06-17T17:48:11.013Z,1.70
2018-06-17T17:50:39.879Z,1.97
2018-06-17T17:53:08.609Z,1.57
2018-06-17T17:55:38.171Z,1.53
2018-06-17T17:58:07.057Z,1.73
2018-06-17T18:00:36.368Z,1.50
2018-06-17T18:03:06.220Z,1.70
2018-06-17T18:05:36.408Z,1.30
2018-06-17T18:08:05.457Z,1.40
2018-06-17T18:10:34.681Z,1.50
2018-06-17T18:13:03.725Z,1.77
2018-06-17T18:15:32.626Z,1.60
2018-06-17T18:18:01.470Z,1.30
2018-06-17T18:20:30.305Z,1.60
2018-06-17T18:22:59.184Z,1.63
2018-06-17T18:25:33.444Z,1.67
2018-06-17T18:28:07.814Z,1.80
2018-06-17T18:30:41.870Z,1.37
2018-06-17T18:33:16.261Z,1.50
2018-06-17T18:35:50.542Z,1.50
2018-06-17T18:38:19.408Z,1.83
2018-06-17T18:40:48.403Z,1.50
2018-06-17T18:43:17.277Z,1.82
2018-06-17T18:45:46.157Z,1.80
2018-06-17T18:48:15.018Z,1.60
2018-06-17T18:50:44.236Z,1.93
2018-06-17T18:53:14.345Z,1.37
2018-06-17T18:55:43.565Z,1.67
2018-06-17T18:58:12.467Z,1.90
2018-06-17T19:00:41.383Z,1.73
2018-06-17T19:03:10.331Z,1.70
2018-06-17T19:05:39.235Z,1.30
2018-06-17T19:08:12.284Z,1.40
2018-06-17T19:10:46.448Z,1.70
2018-06-17T19:13:20.713Z,1.70
2018-06-17T19:15:55.019Z,1.35
2018-06-17T19:18:23.897Z,1.30
2018-06-17T19:20:52.907Z,1.57
2018-06-17T19:23:21.806Z,1.70
2018-06-17T19:25:50.643Z,1.23
2018-06-17T19:28:19.532Z,1.53
2018-06-17T19:30:48.390Z,1.90
2018-06-17T19:33:17.250Z,1.40
2018-06-17T19:35:46.168Z,1.37
2018-06-17T19:38:15.032Z,1.77
2018-06-17T19:40:44.104Z,1.53
2018-06-17T19:43:13.024Z,1.73
2018-06-17T19:45:41.909Z,1.60
2018-06-17T19:48:10.775Z,2.03
2018-06-17T19:50:44.901Z,1.50
2018-06-17T19:53:19.258Z,1.73
2018-06-17T19:55:53.470Z,1.67
2018-06-17T19:58:27.881Z,1.80
2018-06-17T20:00:59.224Z,1.87
2018-06-17T20:03:28.049Z,1.57
2018-06-17T20:05:57.600Z,1.53
2018-06-17T20:08:26.453Z,1.50
2018-06-17T20:10:55.302Z,1.53
2018-06-17T20:13:24.139Z,1.90
2018-06-17T20:15:53.033Z,1.97
2018-06-17T20:18:22.187Z,1.53
2018-06-17T20:20:51.343Z,1.70
2018-06-17T20:23:20.542Z,1.57
2018-06-17T20:25:49.491Z,1.23
2018-06-17T20:28:18.376Z,2.67
2018-06-17T20:30:47.260Z,1.67
2018-06-17T20:34:21.042Z,1.52
2018-06-17T20:36:55.261Z,1.80
2018-06-17T20:39:29.441Z,1.67
2018-06-17T20:42:04.928Z,2.17
2018-06-17T20:44:33.873Z,1.87
2018-06-17T20:47:02.744Z,2.10
2018-06-17T20:49:31.559Z,1.90
2018-06-17T20:52:00.439Z,2.17
2018-06-17T20:54:29.292Z,1.90
2018-06-17T20:56:58.213Z,1.80
2018-06-17T20:59:27.062Z,1.87
2018-06-17T21:01:56.161Z,1.85
2018-06-17T21:04:26.523Z,2.03
2018-06-17T21:06:57.325Z,1.80
2018-06-17T21:09:26.169Z,1.53
2018-06-17T21:11:55.095Z,1.70
2018-06-17T21:14:26.474Z,1.93
2018-06-17T21:16:57.926Z,1.70
2018-06-17T21:19:32.855Z,1.63
2018-06-17T21:22:07.231Z,2.00
2018-06-17T21:24:41.419Z,1.93
2018-06-17T21:27:15.764Z,1.67
2018-06-17T21:29:44.597Z,2.57
2018-06-17T21:32:13.447Z,1.80
2018-06-17T21:34:42.331Z,1.70
2018-06-17T21:37:11.204Z,2.57
2018-06-17T21:39:41.115Z,1.90
2018-06-17T21:42:09.991Z,1.80
2018-06-17T21:44:38.852Z,1.90
2018-06-17T21:47:07.689Z,1.80
2018-06-17T21:49:36.527Z,1.90
2018-06-17T21:52:05.362Z,1.60
2018-06-17T21:54:34.214Z,2.17
2018-06-17T21:57:03.104Z,1.90
2018-06-17T21:59:31.910Z,1.97
2018-06-17T22:02:00.810Z,2.40
2018-06-17T22:04:35.148Z,1.73
2018-06-17T22:07:04.547Z,1.98
2018-06-17T22:09:38.882Z,2.10
2018-06-17T22:12:13.205Z,1.70
2018-06-17T22:14:47.604Z,1.63
2018-06-17T22:17:22.000Z,1.80
2018-06-17T22:19:51.145Z,2.10
2018-06-17T22:22:22.026Z,1.90
2018-06-17T22:24:50.915Z,1.50
2018-06-17T22:27:19.769Z,1.90
2018-06-17T22:29:48.635Z,2.00
2018-06-17T22:32:17.473Z,2.27
2018-06-17T22:34:46.350Z,2.20
2018-06-17T22:37:15.172Z,2.20
2018-06-17T22:39:44.035Z,2.03
2018-06-17T22:42:12.950Z,1.80
2018-06-17T22:44:42.161Z,1.60
2018-06-17T22:47:11.024Z,2.10
2018-06-17T22:49:40.231Z,1.97
2018-06-17T22:52:09.082Z,2.10
2018-06-17T22:54:49.480Z,1.97
2018-06-17T22:57:23.823Z,2.50
2018-06-17T22:59:57.963Z,1.43
2018-06-17T23:02:32.387Z,2.10
2018-06-17T23:05:07.449Z,2.47
2018-06-17T23:07:41.554Z,1.53
2018-06-17T23:10:11.331Z,1.80
2018-06-17T23:12:40.629Z,1.97
2018-06-17T23:15:09.496Z,2.30
2018-06-17T23:17:38.378Z,2.77
2018-06-17T23:20:07.272Z,2.17
2018-06-17T23:22:36.149Z,2.07
2018-06-17T23:25:05.098Z,2.10
2018-06-17T23:27:34.465Z,2.20
2018-06-17T23:30:03.387Z,2.00
2018-06-17T23:32:32.820Z,2.47
2018-06-17T23:35:01.657Z,1.93
2018-06-17T23:37:31.044Z,2.70
2018-06-17T23:40:00.021Z,2.80
2018-06-17T23:42:28.892Z,3.47
2018-06-17T23:44:58.019Z,2.77
2018-06-17T23:47:32.782Z,2.40
2018-06-17T23:50:07.066Z,2.20
2018-06-17T23:52:41.909Z,2.23
2018-06-17T23:55:16.353Z,2.13
2018-06-17T23:57:45.923Z,2.40
